KDLN/DLN METAR and TAF weather

Enter ICAO airport designator
Station Type Date Time Source
KDLN METAR 2021/05/13 17:53 UTC NOAA

KDLN 131753Z AUTO 04006KT 10SM FEW001 17/M03 A3016 RMK AO2 SLP175 T01671028 10172 20050 58003 $


Station Type Date Time Source
KDLN Decoded METAR 2021/05/13 17:53 UTC NOAA

DILLON AIRPORT, MT, United States (KDLN) 45-15N 112-33W 1591M
May 13, 2021 - 01:53 PM EDT / 2021.05.13 1753 UTC
Wind: from the NE (040 degrees) at 7 MPH (6 KT):0
Visibility: 10 mile(s):0
Sky conditions: mostly clear
Temperature: 62.1 F (16.7 C)
Dew Point: 27.0 F (-2.8 C)
Relative Humidity: 26%
Pressure (altimeter): 30.16 in. Hg (1021 hPa)
Pressure tendency: 0.01 inches (0.3 hPa) lower than three hours ago
ob: KDLN 131753Z AUTO 04006KT 10SM FEW001 17/M03 A3016 RMK AO2 SLP175 T01671028 10172 20050 58003
cycle: 18

Station Type Date Time Source
KDLN TAF UTC NOAA

Error!

Example: see airport list